createdAt,value
2022-07-25T00:00:56.946Z,99.90
2022-07-25T00:03:58.054Z,99.90
2022-07-25T00:06:58.957Z,99.90
2022-07-25T00:09:59.974Z,99.90
2022-07-25T00:13:00.962Z,99.90
2022-07-25T00:16:02.319Z,99.90
2022-07-25T00:19:03.876Z,99.90
2022-07-25T00:22:05.027Z,99.90
2022-07-25T00:25:06.548Z,99.90
2022-07-25T00:28:07.614Z,99.90
2022-07-25T00:31:09.001Z,99.90
2022-07-25T00:34:10.637Z,99.90
2022-07-25T00:37:12.099Z,99.90
2022-07-25T00:40:13.916Z,99.90
2022-07-25T00:43:14.786Z,99.90
2022-07-25T00:46:19.049Z,99.90
2022-07-25T00:49:20.913Z,99.90
2022-07-25T00:52:24.645Z,99.90
2022-07-25T00:55:27.022Z,99.90
2022-07-25T00:58:28.067Z,99.90
2022-07-25T01:01:29.295Z,99.90
2022-07-25T01:04:30.139Z,99.90
2022-07-25T01:07:31.688Z,99.90
2022-07-25T01:10:34.564Z,99.90
2022-07-25T01:13:35.848Z,99.90
2022-07-25T01:16:37.153Z,99.90
2022-07-25T01:19:38.020Z,99.90
2022-07-25T01:22:38.721Z,99.90
2022-07-25T01:25:39.977Z,99.90
2022-07-25T01:28:41.467Z,99.90
2022-07-25T01:31:42.301Z,99.90
2022-07-25T01:34:43.197Z,99.90
2022-07-25T01:37:45.943Z,99.90
2022-07-25T01:40:47.193Z,99.90
2022-07-25T01:43:48.072Z,99.90
2022-07-25T01:46:49.489Z,99.90
2022-07-25T01:49:51.193Z,99.90
2022-07-25T01:52:52.308Z,99.90
2022-07-25T01:55:53.761Z,99.90
2022-07-25T01:58:55.886Z,99.90
2022-07-25T02:01:57.091Z,99.90
2022-07-25T02:04:58.173Z,99.90
2022-07-25T02:07:59.362Z,99.90
2022-07-25T02:11:00.988Z,99.90
2022-07-25T02:14:03.803Z,99.90
2022-07-25T02:17:05.152Z,99.90
2022-07-25T02:20:07.145Z,99.90
2022-07-25T02:23:08.749Z,99.90
2022-07-25T02:26:09.857Z,99.90
2022-07-25T02:29:10.814Z,99.90
2022-07-25T02:32:11.793Z,99.90
2022-07-25T02:35:13.558Z,99.90
2022-07-25T02:38:19.837Z,99.90
2022-07-25T02:41:20.636Z,99.90
2022-07-25T02:44:21.789Z,99.90
2022-07-25T02:47:23.363Z,99.90
2022-07-25T02:50:25.044Z,99.90
2022-07-25T02:53:47.198Z,99.90
2022-07-25T02:56:47.036Z,99.90
2022-07-25T02:59:47.967Z,99.90
2022-07-25T03:02:49.830Z,99.90
2022-07-25T03:05:51.332Z,99.90
2022-07-25T03:08:52.133Z,99.90
2022-07-25T03:11:54.498Z,99.90
2022-07-25T03:14:56.043Z,99.90
2022-07-25T03:17:57.288Z,99.90
2022-07-25T03:20:58.202Z,99.90
2022-07-25T03:23:59.051Z,99.90
2022-07-25T03:27:00.328Z,99.90
2022-07-25T03:30:01.520Z,99.90
2022-07-25T03:33:02.227Z,99.90
2022-07-25T03:36:04.286Z,99.90
2022-07-25T03:39:05.802Z,99.90
2022-07-25T03:42:06.913Z,99.90
2022-07-25T03:45:08.693Z,99.90
2022-07-25T03:48:09.834Z,99.90
2022-07-25T03:51:11.225Z,99.90
2022-07-25T03:54:14.714Z,99.90
2022-07-25T03:57:15.301Z,99.90
2022-07-25T04:00:16.582Z,99.90
2022-07-25T04:03:17.663Z,99.90
2022-07-25T04:06:18.930Z,99.90
2022-07-25T04:09:19.854Z,99.90
2022-07-25T04:12:20.790Z,99.90
2022-07-25T04:15:21.773Z,99.90
2022-07-25T04:18:22.475Z,99.90
2022-07-25T04:21:29.801Z,99.90
2022-07-25T04:24:31.527Z,99.90
2022-07-25T04:27:32.477Z,99.90
2022-07-25T04:30:33.719Z,99.90
2022-07-25T04:33:41.302Z,99.90
2022-07-25T04:36:42.566Z,99.90
2022-07-25T04:39:43.441Z,99.90
2022-07-25T04:42:44.329Z,99.90
2022-07-25T04:45:45.206Z,99.90
2022-07-25T04:48:46.468Z,99.90
2022-07-25T04:51:49.333Z,99.90
2022-07-25T04:54:50.225Z,99.90
2022-07-25T04:57:51.543Z,99.90
2022-07-25T05:00:52.552Z,99.90
2022-07-25T05:03:53.741Z,99.90
2022-07-25T05:06:54.948Z,99.90
2022-07-25T05:09:56.367Z,99.90
2022-07-25T05:12:57.601Z,99.90
2022-07-25T05:15:58.531Z,99.90
2022-07-25T05:18:59.433Z,99.90
2022-07-25T05:22:00.601Z,99.90
2022-07-25T05:25:04.784Z,99.90
2022-07-25T05:28:05.761Z,99.90
2022-07-25T05:31:06.820Z,99.90
2022-07-25T05:34:09.295Z,99.90
2022-07-25T05:37:11.169Z,99.90
2022-07-25T05:40:13.323Z,99.90
2022-07-25T05:43:14.493Z,99.90
2022-07-25T05:46:19.343Z,99.90
2022-07-25T05:49:20.949Z,99.90
2022-07-25T05:52:22.888Z,99.90
2022-07-25T05:55:24.111Z,99.90
2022-07-25T05:58:29.621Z,99.90
2022-07-25T06:01:30.876Z,99.90
2022-07-25T06:04:32.078Z,99.90
2022-07-25T06:07:33.428Z,99.90
2022-07-25T06:10:34.672Z,99.90
2022-07-25T06:13:38.461Z,99.90
2022-07-25T06:16:39.429Z,99.90
2022-07-25T06:19:40.640Z,99.90
2022-07-25T06:22:41.510Z,99.90
2022-07-25T06:25:42.480Z,99.90
2022-07-25T06:28:43.352Z,99.90
2022-07-25T06:31:46.378Z,99.90
2022-07-25T06:34:48.168Z,99.90
2022-07-25T06:37:49.566Z,99.90
2022-07-25T06:40:50.807Z,99.90
2022-07-25T06:43:52.023Z,99.90
2022-07-25T06:46:52.779Z,99.90
2022-07-25T06:49:53.913Z,99.90
2022-07-25T06:52:55.247Z,99.90
2022-07-25T06:55:56.067Z,99.90
2022-07-25T06:58:57.179Z,99.90
2022-07-25T07:01:58.316Z,99.90
2022-07-25T07:04:58.951Z,99.90
2022-07-25T07:08:01.351Z,99.90
2022-07-25T07:11:02.224Z,99.90
2022-07-25T07:14:05.075Z,99.90
2022-07-25T07:17:06.322Z,99.90
2022-07-25T07:20:08.754Z,99.90
2022-07-25T07:23:10.454Z,99.90
2022-07-25T07:26:11.791Z,99.90
2022-07-25T07:29:12.677Z,99.90
2022-07-25T07:32:13.982Z,99.90
2022-07-25T07:35:16.763Z,99.90
2022-07-25T07:38:18.449Z,99.90
2022-07-25T07:41:19.680Z,99.90
2022-07-25T07:44:20.705Z,99.90
2022-07-25T07:47:21.898Z,99.90
2022-07-25T07:50:27.234Z,99.90
2022-07-25T07:53:47.193Z,99.90
2022-07-25T07:56:48.481Z,99.90
2022-07-25T07:59:49.247Z,99.90
2022-07-25T08:02:53.289Z,99.90
2022-07-25T08:05:54.589Z,99.10
2022-07-25T08:08:56.026Z,99.90
2022-07-25T08:11:57.176Z,99.50
2022-07-25T08:14:58.485Z,97.80
2022-07-25T08:18:00.551Z,97.40
2022-07-25T08:21:04.290Z,96.50
2022-07-25T08:24:06.938Z,97.90
2022-07-25T08:27:08.145Z,97.30
2022-07-25T08:30:10.956Z,97.00
2022-07-25T08:33:16.455Z,95.70
2022-07-25T08:36:17.717Z,94.80
2022-07-25T08:39:18.573Z,94.40
2022-07-25T08:42:21.260Z,93.70
2022-07-25T08:45:23.422Z,92.90
2022-07-25T08:48:27.052Z,95.10
2022-07-25T08:51:28.933Z,92.80
2022-07-25T08:54:31.889Z,95.20
2022-07-25T08:57:34.237Z,99.40
2022-07-25T09:00:35.151Z,97.40
2022-07-25T09:03:36.554Z,96.20
2022-07-25T09:06:37.789Z,96.20
2022-07-25T09:09:39.765Z,96.20
2022-07-25T09:12:42.077Z,94.60
2022-07-25T09:15:52.752Z,94.10
2022-07-25T09:18:53.901Z,96.10
2022-07-25T09:22:10.263Z,96.60
2022-07-25T09:25:22.677Z,93.40
2022-07-25T09:28:23.912Z,90.70
2022-07-25T09:31:35.090Z,92.90
2022-07-25T09:34:39.391Z,82.60
2022-07-25T09:37:40.456Z,91.50
2022-07-25T09:40:42.755Z,91.00
2022-07-25T09:43:44.793Z,90.10
2022-07-25T09:46:46.062Z,77.40
2022-07-25T09:49:47.828Z,77.20
2022-07-25T09:52:52.870Z,76.00
2022-07-25T09:55:55.326Z,76.30
2022-07-25T09:58:56.651Z,77.30
2022-07-25T10:02:25.990Z,76.20
2022-07-25T10:05:45.415Z,74.60
2022-07-25T10:08:49.136Z,74.50
2022-07-25T10:12:11.719Z,69.50
2022-07-25T10:15:14.463Z,67.50
2022-07-25T10:18:19.814Z,65.00
2022-07-25T10:21:27.043Z,64.70
2022-07-25T10:24:39.099Z,64.50
2022-07-25T10:28:00.132Z,64.10
2022-07-25T10:31:01.166Z,62.60
2022-07-25T10:34:07.504Z,63.40
2022-07-25T10:37:11.544Z,62.90
2022-07-25T10:40:24.568Z,64.00
2022-07-25T10:43:28.210Z,62.70
2022-07-25T10:46:31.167Z,59.20
2022-07-25T10:49:50.127Z,60.40
2022-07-25T10:53:01.374Z,59.30
2022-07-25T10:56:23.386Z,59.70
2022-07-25T10:59:39.531Z,59.40
2022-07-25T11:02:41.512Z,60.00
2022-07-25T11:05:49.276Z,58.70
2022-07-25T11:08:50.124Z,59.00
2022-07-25T11:11:55.345Z,58.60
2022-07-25T11:15:08.323Z,57.00
2022-07-25T11:18:09.481Z,57.80
2022-07-25T11:21:10.814Z,57.90
2022-07-25T11:24:11.814Z,57.80
2022-07-25T11:27:25.386Z,60.10
2022-07-25T11:30:29.818Z,57.80
2022-07-25T11:33:31.413Z,57.60
2022-07-25T11:36:32.512Z,58.60
2022-07-25T11:39:37.773Z,57.90
2022-07-25T11:42:52.260Z,57.20
2022-07-25T11:46:08.971Z,56.50
2022-07-25T11:49:10.915Z,54.00
2022-07-25T11:52:22.346Z,56.10
2022-07-25T11:55:30.623Z,56.70
2022-07-25T11:58:31.966Z,55.70
2022-07-25T12:01:45.444Z,54.80
2022-07-25T12:04:55.778Z,55.70
2022-07-25T12:07:56.759Z,53.90
2022-07-25T12:10:57.748Z,53.70
2022-07-25T12:14:05.126Z,54.20
2022-07-25T12:17:06.236Z,53.80
2022-07-25T12:20:21.519Z,52.00
2022-07-25T12:23:22.655Z,53.20
2022-07-25T12:26:23.750Z,51.70
2022-07-25T12:29:24.732Z,51.60
2022-07-25T12:32:25.614Z,51.10
2022-07-25T12:35:27.211Z,51.60
2022-07-25T12:38:29.115Z,49.80
2022-07-25T12:41:30.139Z,51.30
2022-07-25T12:44:31.473Z,49.50
2022-07-25T12:47:32.805Z,49.30
2022-07-25T12:50:33.843Z,48.90
2022-07-25T12:53:37.814Z,48.70
2022-07-25T12:56:41.686Z,48.50
2022-07-25T12:59:43.426Z,47.40
2022-07-25T13:02:44.646Z,47.10
2022-07-25T13:05:45.660Z,46.10
2022-07-25T13:08:47.263Z,47.80
2022-07-25T13:11:49.040Z,47.00
2022-07-25T13:14:50.610Z,44.30
2022-07-25T13:17:51.731Z,45.20
2022-07-25T13:20:53.042Z,46.90
2022-07-25T13:23:54.114Z,45.70
2022-07-25T13:26:55.251Z,47.30
2022-07-25T13:29:56.316Z,45.30
2022-07-25T13:32:57.772Z,46.30
2022-07-25T13:35:58.706Z,46.20
2022-07-25T13:38:59.739Z,47.60
2022-07-25T13:42:01.126Z,47.30
2022-07-25T13:45:02.458Z,47.70
2022-07-25T13:48:28.579Z,46.90
2022-07-25T13:51:26.847Z,45.80
2022-07-25T13:54:27.995Z,44.90
2022-07-25T13:57:28.793Z,46.30
2022-07-25T14:00:30.175Z,45.70
2022-07-25T14:03:30.880Z,44.40
2022-07-25T14:06:32.026Z,45.70
2022-07-25T14:09:32.854Z,48.30
2022-07-25T14:12:34.596Z,48.20
2022-07-25T14:15:36.024Z,47.80
2022-07-25T14:18:37.171Z,45.70
2022-07-25T14:21:38.381Z,47.00
2022-07-25T14:24:39.313Z,47.70
2022-07-25T14:27:40.647Z,46.80
2022-07-25T14:30:41.713Z,48.60
2022-07-25T14:33:42.975Z,46.00
2022-07-25T14:36:44.917Z,46.20
2022-07-25T14:39:46.615Z,48.50
2022-07-25T14:42:47.485Z,49.00
2022-07-25T14:45:48.494Z,48.50
2022-07-25T14:48:50.037Z,49.40
2022-07-25T14:51:51.241Z,53.30
2022-07-25T14:54:52.261Z,52.00
2022-07-25T14:57:53.101Z,51.40
2022-07-25T15:00:54.474Z,52.90
2022-07-25T15:03:57.219Z,50.10
2022-07-25T15:06:58.478Z,48.70
2022-07-25T15:09:59.949Z,47.00
2022-07-25T15:13:29.241Z,44.40
2022-07-25T15:16:22.134Z,45.20
2022-07-25T15:19:23.262Z,45.60
2022-07-25T15:22:24.602Z,44.60
2022-07-25T15:26:00.000Z,46.20
2022-07-25T15:28:47.325Z,48.40
2022-07-25T15:31:49.420Z,48.70
2022-07-25T15:34:50.272Z,49.90
2022-07-25T15:37:51.162Z,50.90
2022-07-25T15:40:52.154Z,50.40
2022-07-25T15:43:53.503Z,52.10
2022-07-25T15:46:54.503Z,52.90
2022-07-25T15:49:55.933Z,55.00
2022-07-25T15:52:57.283Z,55.90
2022-07-25T15:55:58.243Z,56.80
2022-07-25T15:58:59.581Z,58.70
2022-07-25T16:02:00.900Z,60.30
2022-07-25T16:05:03.555Z,59.80
2022-07-25T16:08:05.569Z,59.20
2022-07-25T16:11:06.797Z,58.90
2022-07-25T16:14:09.145Z,59.00
2022-07-25T16:17:10.105Z,56.50
2022-07-25T16:20:11.974Z,56.30
2022-07-25T16:23:13.902Z,58.10
2022-07-25T16:26:15.296Z,56.00
2022-07-25T16:29:16.617Z,57.10
2022-07-25T16:32:18.971Z,57.50
2022-07-25T16:35:20.072Z,55.90
2022-07-25T16:38:22.388Z,56.60
2022-07-25T16:41:23.381Z,57.20
2022-07-25T16:44:24.652Z,59.80
2022-07-25T16:47:26.199Z,60.70
2022-07-25T16:50:27.154Z,61.80
2022-07-25T16:53:28.275Z,61.90
2022-07-25T16:56:29.706Z,63.20
2022-07-25T16:59:30.585Z,63.30
2022-07-25T17:02:32.414Z,63.90
2022-07-25T17:05:33.511Z,64.50
2022-07-25T17:08:35.813Z,64.60
2022-07-25T17:11:37.149Z,65.00
2022-07-25T17:14:38.126Z,65.20
2022-07-25T17:17:39.133Z,66.40
2022-07-25T17:20:40.678Z,67.60
2022-07-25T17:23:41.732Z,69.00
2022-07-25T17:26:43.076Z,68.50
2022-07-25T17:29:43.821Z,68.10
2022-07-25T17:32:45.165Z,69.40
2022-07-25T17:35:46.490Z,68.40
2022-07-25T17:38:47.417Z,68.50
2022-07-25T17:41:48.919Z,70.30
2022-07-25T17:44:52.058Z,70.90
2022-07-25T17:47:53.390Z,69.20
2022-07-25T17:50:54.442Z,68.80
2022-07-25T17:53:55.685Z,68.00
2022-07-25T17:56:57.643Z,67.50
2022-07-25T17:59:58.390Z,68.50
2022-07-25T18:02:59.889Z,68.90
2022-07-25T18:06:00.749Z,68.10
2022-07-25T18:09:01.963Z,68.90
2022-07-25T18:12:03.870Z,69.50
2022-07-25T18:15:06.761Z,69.50
2022-07-25T18:18:10.538Z,70.10
2022-07-25T18:21:13.008Z,70.60
2022-07-25T18:24:14.285Z,70.40
2022-07-25T18:27:15.104Z,70.90
2022-07-25T18:30:17.055Z,71.20
2022-07-25T18:33:19.309Z,71.00
2022-07-25T18:36:20.501Z,71.70
2022-07-25T18:39:22.816Z,72.50
2022-07-25T18:42:29.541Z,71.80
2022-07-25T18:45:31.361Z,72.30
2022-07-25T18:48:32.480Z,71.90
2022-07-25T18:51:33.413Z,71.00
2022-07-25T18:54:34.110Z,71.90
2022-07-25T18:57:35.296Z,71.20
2022-07-25T19:00:36.254Z,71.70
2022-07-25T19:03:37.774Z,71.70
2022-07-25T19:06:39.156Z,71.50
2022-07-25T19:09:40.215Z,71.10
2022-07-25T19:12:41.650Z,71.10
2022-07-25T19:15:42.550Z,71.50
2022-07-25T19:18:43.952Z,72.60
2022-07-25T19:21:46.072Z,72.50
2022-07-25T19:24:48.087Z,73.00
2022-07-25T19:27:49.173Z,72.70
2022-07-25T19:30:50.609Z,72.80
2022-07-25T19:33:51.792Z,72.10
2022-07-25T19:36:55.687Z,71.10
2022-07-25T19:39:56.870Z,71.00
2022-07-25T19:42:58.745Z,71.30
2022-07-25T19:46:00.083Z,72.40
2022-07-25T19:49:01.893Z,72.10
2022-07-25T19:52:03.441Z,72.50
2022-07-25T19:55:05.910Z,74.00
2022-07-25T19:58:08.683Z,73.40
2022-07-25T20:01:09.987Z,73.10
2022-07-25T20:04:11.415Z,73.40
2022-07-25T20:07:12.681Z,73.70
2022-07-25T20:10:13.463Z,74.30
2022-07-25T20:13:19.049Z,74.10
2022-07-25T20:16:20.452Z,74.30
2022-07-25T20:19:21.797Z,75.20
2022-07-25T20:22:23.165Z,75.00
2022-07-25T20:25:23.920Z,75.20
2022-07-25T20:28:24.859Z,75.30
2022-07-25T20:31:26.142Z,75.50
2022-07-25T20:34:27.088Z,77.60
2022-07-25T20:37:28.282Z,78.30
2022-07-25T20:40:30.024Z,79.00
2022-07-25T20:43:32.872Z,79.00
2022-07-25T20:46:36.080Z,79.50
2022-07-25T20:49:37.341Z,79.70
2022-07-25T20:52:39.167Z,80.50
2022-07-25T20:55:40.347Z,81.20
2022-07-25T20:58:41.294Z,81.40
2022-07-25T21:01:42.794Z,80.40
2022-07-25T21:04:44.994Z,80.20
2022-07-25T21:07:46.537Z,80.90
2022-07-25T21:10:47.353Z,81.10
2022-07-25T21:13:48.287Z,81.70
2022-07-25T21:16:49.593Z,82.10
2022-07-25T21:19:50.456Z,82.00
2022-07-25T21:22:51.398Z,82.00
2022-07-25T21:25:52.502Z,82.40
2022-07-25T21:28:53.884Z,82.70
2022-07-25T21:31:54.711Z,83.10
2022-07-25T21:34:55.878Z,83.40
2022-07-25T21:37:58.781Z,84.00
2022-07-25T21:40:59.914Z,84.40
2022-07-25T21:44:01.345Z,84.00
2022-07-25T21:47:02.475Z,87.00
2022-07-25T21:50:24.463Z,86.30
2022-07-25T21:53:26.370Z,86.10
2022-07-25T21:56:27.707Z,86.50
2022-07-25T21:59:28.943Z,84.50
2022-07-25T22:02:29.960Z,84.50
2022-07-25T22:05:31.514Z,84.80
2022-07-25T22:08:32.611Z,85.90
2022-07-25T22:11:42.947Z,86.50
2022-07-25T22:14:47.801Z,87.30
2022-07-25T22:17:50.084Z,87.50
2022-07-25T22:20:51.253Z,88.90
2022-07-25T22:23:52.622Z,91.40
2022-07-25T22:26:54.142Z,93.60
2022-07-25T22:29:55.064Z,94.40
2022-07-25T22:32:56.583Z,95.00
2022-07-25T22:35:57.788Z,94.90
2022-07-25T22:38:58.985Z,93.00
2022-07-25T22:42:00.364Z,94.40
2022-07-25T22:45:01.900Z,97.40
2022-07-25T22:48:02.942Z,99.90
2022-07-25T22:51:04.399Z,99.90
2022-07-25T22:54:05.750Z,99.90
2022-07-25T22:57:07.123Z,98.90
2022-07-25T23:00:12.006Z,99.90
2022-07-25T23:03:13.311Z,99.90
2022-07-25T23:06:14.649Z,99.90
2022-07-25T23:09:15.782Z,99.90
2022-07-25T23:12:16.866Z,99.90
2022-07-25T23:15:18.087Z,99.90
2022-07-25T23:18:19.803Z,99.90
2022-07-25T23:21:21.020Z,99.90
2022-07-25T23:24:21.979Z,99.90
2022-07-25T23:27:25.410Z,99.90
2022-07-25T23:30:26.499Z,99.90
2022-07-25T23:33:27.714Z,99.90
2022-07-25T23:36:30.088Z,99.90
2022-07-25T23:39:32.003Z,99.90
2022-07-25T23:42:33.001Z,99.90
2022-07-25T23:45:35.464Z,99.90
2022-07-25T23:48:36.781Z,99.90
2022-07-25T23:51:38.789Z,98.30
2022-07-25T23:54:41.016Z,95.40
2022-07-25T23:57:41.811Z,98.60
